createdAt,value
2022-12-18T00:00:13.132Z,13.98
2022-12-18T00:04:23.286Z,14.00
2022-12-18T00:08:26.351Z,19.48
2022-12-18T00:12:29.955Z,15.95
2022-12-18T00:16:34.005Z,16.25
2022-12-18T00:20:40.623Z,11.10
2022-12-18T00:24:42.677Z,12.10
2022-12-18T00:28:46.054Z,13.45
2022-12-18T00:32:48.053Z,12.05
2022-12-18T00:36:50.075Z,13.93
2022-12-18T00:40:52.070Z,13.13
2022-12-18T00:44:54.043Z,12.98
2022-12-18T00:48:56.077Z,13.27
2022-12-18T00:52:58.092Z,13.40
2022-12-18T00:57:00.105Z,12.48
2022-12-18T01:01:02.191Z,14.27
2022-12-18T01:05:05.068Z,13.02
2022-12-18T01:09:07.303Z,13.40
2022-12-18T01:13:12.154Z,13.93
2022-12-18T01:17:14.233Z,14.40
2022-12-18T01:21:17.114Z,10.55
2022-12-18T01:25:19.163Z,9.75
2022-12-18T01:29:21.236Z,8.88
2022-12-18T01:33:23.640Z,9.10
2022-12-18T01:37:25.713Z,8.65
2022-12-18T01:41:49.174Z,8.45
2022-12-18T01:45:51.210Z,8.98
2022-12-18T01:49:54.861Z,8.40
2022-12-18T01:53:58.348Z,10.50
2022-12-18T01:58:01.448Z,8.77
2022-12-18T02:02:04.068Z,9.38
2022-12-18T02:06:34.424Z,9.18
2022-12-18T02:11:04.929Z,9.25
2022-12-18T02:15:16.289Z,8.70
2022-12-18T02:19:48.250Z,7.97
2022-12-18T02:23:56.210Z,8.98
2022-12-18T02:28:02.599Z,9.98
2022-12-18T02:32:12.838Z,9.57
2022-12-18T02:36:17.278Z,13.50
2022-12-18T02:40:21.712Z,9.88
2022-12-18T02:44:24.440Z,11.38
2022-12-18T02:48:31.872Z,11.07
2022-12-18T02:53:18.507Z,10.05
2022-12-18T02:57:34.712Z,11.73
2022-12-18T03:01:53.205Z,10.95
2022-12-18T03:06:03.312Z,8.93
2022-12-18T03:10:09.882Z,9.02
2022-12-18T03:14:17.005Z,8.57
2022-12-18T03:22:34.227Z,9.20
2022-12-18T03:26:41.080Z,10.65
2022-12-18T03:30:47.038Z,10.02
2022-12-18T03:34:52.806Z,9.15
2022-12-18T03:38:58.032Z,10.32
2022-12-18T03:43:12.657Z,9.20
2022-12-18T03:47:21.909Z,9.93
2022-12-18T03:51:29.615Z,9.98
2022-12-18T03:55:35.614Z,10.65
2022-12-18T03:59:41.994Z,11.23
2022-12-18T04:03:47.861Z,10.85
2022-12-18T04:07:52.801Z,9.98
2022-12-18T04:11:54.832Z,11.02
2022-12-18T04:15:57.390Z,11.10
2022-12-18T04:20:00.268Z,10.63
2022-12-18T04:24:02.621Z,11.80
2022-12-18T04:28:05.173Z,10.93
2022-12-18T04:32:08.559Z,11.35
2022-12-18T04:36:13.363Z,10.98
2022-12-18T04:40:16.050Z,11.43
2022-12-18T04:44:21.313Z,11.65
2022-12-18T04:48:23.336Z,10.48
2022-12-18T04:52:25.436Z,11.90
2022-12-18T04:56:27.441Z,11.18
2022-12-18T05:00:29.447Z,11.32
2022-12-18T05:04:31.825Z,11.73
2022-12-18T05:08:34.152Z,12.15
2022-12-18T05:12:56.117Z,11.77
2022-12-18T05:17:01.020Z,12.18
2022-12-18T05:21:04.088Z,11.20
2022-12-18T05:25:06.354Z,11.80
2022-12-18T05:29:08.395Z,12.32
2022-12-18T05:33:10.415Z,11.57
2022-12-18T05:37:12.589Z,11.77
2022-12-18T05:41:14.588Z,12.02
2022-12-18T05:45:16.635Z,11.82
2022-12-18T05:49:18.726Z,12.65
2022-12-18T05:53:21.538Z,14.27
2022-12-18T05:57:23.597Z,13.27
2022-12-18T06:01:27.656Z,12.35
2022-12-18T06:05:29.786Z,11.60
2022-12-18T06:09:31.861Z,11.57
2022-12-18T06:13:33.988Z,12.70
2022-12-18T06:17:36.561Z,11.80
2022-12-18T06:21:38.573Z,11.20
2022-12-18T06:25:40.861Z,12.10
2022-12-18T06:29:42.967Z,12.23
2022-12-18T06:33:45.072Z,11.85
2022-12-18T06:37:47.075Z,11.07
2022-12-18T06:41:49.127Z,11.38
2022-12-18T06:45:53.656Z,11.65
2022-12-18T06:49:55.782Z,11.88
2022-12-18T06:53:57.870Z,10.88
2022-12-18T06:58:00.012Z,11.48
2022-12-18T07:02:02.078Z,10.55
2022-12-18T07:06:04.765Z,10.95
2022-12-18T07:10:06.924Z,10.80
2022-12-18T07:14:08.921Z,11.60
2022-12-18T07:18:11.391Z,11.88
2022-12-18T07:22:13.416Z,13.60
2022-12-18T07:26:17.995Z,14.30
2022-12-18T07:30:19.991Z,16.10
2022-12-18T07:34:21.998Z,14.80
2022-12-18T07:38:23.974Z,14.82
2022-12-18T07:42:32.017Z,14.07
2022-12-18T07:46:34.023Z,13.05
2022-12-18T07:50:36.162Z,13.93
2022-12-18T07:54:38.187Z,14.52
2022-12-18T07:58:40.280Z,14.60
2022-12-18T08:02:42.502Z,13.82
2022-12-18T08:06:47.777Z,13.57
2022-12-18T08:10:50.405Z,14.07
2022-12-18T08:14:52.428Z,13.70
2022-12-18T08:18:54.835Z,16.65
2022-12-18T08:22:58.909Z,13.98
2022-12-18T08:31:23.992Z,15.13
2022-12-18T08:35:28.002Z,16.20
2022-12-18T08:39:32.557Z,14.43
2022-12-18T08:43:53.796Z,11.70
2022-12-18T08:47:56.112Z,13.38
2022-12-18T08:51:58.609Z,11.55
2022-12-18T08:56:00.654Z,12.43
2022-12-18T09:00:03.737Z,13.18
2022-12-18T09:04:05.772Z,13.90
2022-12-18T09:08:10.127Z,12.52
2022-12-18T09:12:12.207Z,12.02
2022-12-18T09:16:14.534Z,12.10
2022-12-18T09:20:17.546Z,11.40
2022-12-18T09:24:20.305Z,12.65
2022-12-18T09:28:22.343Z,12.10
2022-12-18T09:32:24.334Z,11.40
2022-12-18T09:36:26.347Z,11.85
2022-12-18T09:40:35.912Z,10.98
2022-12-18T09:44:46.933Z,12.15
2022-12-18T09:48:52.062Z,11.82
2022-12-18T09:52:58.789Z,10.93
2022-12-18T10:01:12.564Z,11.77
2022-12-18T10:05:17.991Z,12.10
2022-12-18T10:09:30.440Z,11.90
2022-12-18T10:13:43.243Z,12.18
2022-12-18T10:18:22.096Z,11.98
2022-12-18T10:22:34.661Z,13.15
2022-12-18T10:26:36.815Z,12.50
2022-12-18T10:30:39.666Z,13.38
2022-12-18T10:34:41.674Z,13.38
2022-12-18T10:38:44.221Z,14.48
2022-12-18T10:42:46.573Z,15.18
2022-12-18T10:46:57.106Z,14.95
2022-12-18T10:51:15.833Z,15.60
2022-12-18T10:55:19.388Z,14.93
2022-12-18T10:59:25.310Z,15.40
2022-12-18T11:03:33.470Z,15.30
2022-12-18T11:07:51.030Z,16.30
2022-12-18T11:11:57.945Z,17.88
2022-12-18T11:16:00.403Z,17.73
2022-12-18T11:20:07.833Z,17.73
2022-12-18T11:24:31.084Z,18.70
2022-12-18T11:28:42.376Z,18.33
2022-12-18T11:32:48.159Z,19.70
2022-12-18T11:36:50.478Z,19.27
2022-12-18T11:41:01.445Z,20.27
2022-12-18T11:45:29.230Z,20.10
2022-12-18T11:49:37.988Z,21.35
2022-12-18T11:53:40.915Z,18.45
2022-12-18T11:58:04.680Z,20.52
2022-12-18T12:02:30.216Z,19.63
2022-12-18T12:07:02.806Z,20.77
2022-12-18T12:11:10.133Z,20.98
2022-12-18T12:15:23.896Z,19.48
2022-12-18T12:19:38.144Z,20.10
2022-12-18T12:24:10.131Z,20.73
2022-12-18T12:28:24.236Z,20.67
2022-12-18T12:32:43.904Z,20.80
2022-12-18T12:37:17.969Z,20.55
2022-12-18T12:41:44.753Z,20.48
2022-12-18T12:46:09.612Z,20.15
2022-12-18T12:50:19.393Z,23.10
2022-12-18T12:54:25.534Z,21.20
2022-12-18T12:58:42.351Z,19.83
2022-12-18T13:02:56.309Z,19.58
2022-12-18T13:07:11.581Z,20.67
2022-12-18T13:11:49.205Z,20.70
2022-12-18T13:16:08.407Z,21.50
2022-12-18T13:20:16.678Z,21.67
2022-12-18T13:24:27.125Z,21.08
2022-12-18T13:28:47.682Z,21.15
2022-12-18T13:33:15.613Z,19.17
2022-12-18T13:37:33.519Z,19.70
2022-12-18T13:41:35.625Z,20.90
2022-12-18T13:45:44.304Z,20.98
2022-12-18T13:49:48.765Z,21.17
2022-12-18T13:53:54.471Z,20.85
2022-12-18T13:58:07.140Z,20.30
2022-12-18T14:02:18.474Z,20.80
2022-12-18T14:06:21.398Z,20.55
2022-12-18T14:14:49.745Z,20.88
2022-12-18T14:19:01.929Z,20.33
2022-12-18T14:23:27.701Z,19.52
2022-12-18T14:27:29.734Z,19.73
2022-12-18T14:31:32.693Z,20.02
2022-12-18T14:35:36.474Z,19.33
2022-12-18T14:39:39.215Z,20.15
2022-12-18T14:43:44.172Z,20.27
2022-12-18T14:47:46.392Z,18.75
2022-12-18T14:52:00.727Z,19.95
2022-12-18T14:56:11.043Z,20.55
2022-12-18T15:00:22.067Z,20.23
2022-12-18T15:04:31.938Z,19.73
2022-12-18T15:08:38.091Z,21.50
2022-12-18T15:12:44.214Z,22.08
2022-12-18T15:16:55.178Z,21.73
2022-12-18T15:21:00.119Z,20.83
2022-12-18T15:25:03.878Z,20.27
2022-12-18T15:29:06.895Z,19.83
2022-12-18T15:33:25.758Z,19.92
2022-12-18T15:37:27.800Z,20.73
2022-12-18T15:41:33.352Z,19.30
2022-12-18T15:45:37.229Z,21.10
2022-12-18T15:49:39.629Z,20.10
2022-12-18T15:53:42.234Z,19.92
2022-12-18T15:57:44.571Z,20.48
2022-12-18T16:01:51.582Z,20.02
2022-12-18T16:05:53.781Z,18.55
2022-12-18T16:09:57.476Z,20.88
2022-12-18T16:14:01.107Z,20.65
2022-12-18T16:18:03.256Z,19.58
2022-12-18T16:22:05.908Z,20.75
2022-12-18T16:26:08.526Z,20.30
2022-12-18T16:30:18.492Z,20.52
2022-12-18T16:34:24.975Z,20.65
2022-12-18T16:38:29.739Z,19.35
2022-12-18T16:42:32.658Z,17.77
2022-12-18T16:46:34.815Z,17.83
2022-12-18T16:50:36.921Z,18.90
2022-12-18T16:54:38.986Z,18.58
2022-12-18T16:58:41.287Z,18.58
2022-12-18T17:02:44.735Z,18.83
2022-12-18T17:06:51.769Z,19.58
2022-12-18T17:10:53.759Z,19.08
2022-12-18T17:14:55.750Z,18.42
2022-12-18T17:18:57.792Z,20.00
2022-12-18T17:22:59.802Z,19.27
2022-12-18T17:27:04.344Z,18.42
2022-12-18T17:31:13.021Z,18.65
2022-12-18T17:35:15.143Z,18.05
2022-12-18T17:39:19.634Z,18.35
2022-12-18T17:43:21.696Z,18.63
2022-12-18T17:47:25.148Z,18.45
2022-12-18T17:51:28.192Z,18.17
2022-12-18T17:55:30.244Z,18.92
2022-12-18T17:59:32.287Z,18.70
2022-12-18T18:03:37.799Z,18.20
2022-12-18T18:07:40.267Z,17.67
2022-12-18T18:12:00.953Z,16.88
2022-12-18T18:16:03.874Z,17.55
2022-12-18T18:20:06.314Z,17.67
2022-12-18T18:24:09.897Z,18.38
2022-12-18T18:28:12.494Z,19.73
2022-12-18T18:32:14.611Z,18.20
2022-12-18T18:36:16.782Z,18.30
2022-12-18T18:40:18.940Z,19.33
2022-12-18T18:44:25.611Z,18.70
2022-12-18T18:48:30.791Z,18.77
2022-12-18T18:52:34.487Z,17.88
2022-12-18T19:01:02.338Z,18.67
2022-12-18T19:05:04.848Z,17.08
2022-12-18T19:09:07.148Z,17.45
2022-12-18T19:13:22.263Z,17.00
2022-12-18T19:17:29.587Z,17.25
2022-12-18T19:21:34.527Z,17.38
2022-12-18T19:25:42.085Z,17.95
2022-12-18T19:29:44.344Z,18.60
2022-12-18T19:33:47.923Z,17.30
2022-12-18T19:37:49.928Z,17.48
2022-12-18T19:41:52.533Z,18.38
2022-12-18T19:45:55.470Z,19.20
2022-12-18T19:49:57.576Z,18.65
2022-12-18T19:54:01.866Z,18.33
2022-12-18T19:58:04.262Z,18.50
2022-12-18T20:02:06.670Z,18.48
2022-12-18T20:06:08.824Z,18.70
2022-12-18T20:10:14.398Z,18.08
2022-12-18T20:14:19.671Z,18.77
2022-12-18T20:18:25.885Z,18.13
2022-12-18T20:22:27.895Z,18.45
2022-12-18T20:26:30.495Z,19.60
2022-12-18T20:30:32.547Z,18.65
2022-12-18T20:34:34.654Z,19.05
2022-12-18T20:38:38.972Z,19.35
2022-12-18T20:42:41.602Z,18.15
2022-12-18T20:46:43.957Z,19.08
2022-12-18T20:50:45.943Z,19.48
2022-12-18T20:54:48.177Z,19.75
2022-12-18T20:58:51.310Z,19.60
2022-12-18T21:02:57.402Z,19.67
2022-12-18T21:07:02.605Z,18.75
2022-12-18T21:11:39.548Z,19.65
2022-12-18T21:15:41.613Z,20.93
2022-12-18T21:19:43.619Z,18.88
2022-12-18T21:23:45.765Z,23.17
2022-12-18T21:27:47.778Z,19.90
2022-12-18T21:31:51.128Z,19.00
2022-12-18T21:35:53.166Z,20.02
2022-12-18T21:39:55.185Z,19.73
2022-12-18T21:44:06.599Z,18.92
2022-12-18T21:48:08.631Z,18.90
2022-12-18T21:52:10.731Z,19.13
2022-12-18T21:56:12.779Z,20.45
2022-12-18T22:00:19.328Z,19.33
2022-12-18T22:08:24.806Z,18.27
2022-12-18T22:12:43.547Z,18.95
2022-12-18T22:16:47.585Z,18.75
2022-12-18T22:21:01.006Z,20.20
2022-12-18T22:25:03.169Z,20.50
2022-12-18T22:29:24.626Z,18.63
2022-12-18T22:33:26.820Z,19.75
2022-12-18T22:37:28.890Z,20.20
2022-12-18T22:41:30.944Z,20.75
2022-12-18T22:45:38.488Z,21.02
2022-12-18T22:49:40.985Z,19.33
2022-12-18T22:53:43.856Z,18.48
2022-12-18T22:57:49.139Z,19.20
2022-12-18T23:01:54.175Z,19.70
2022-12-18T23:06:07.504Z,19.75
2022-12-18T23:10:09.739Z,19.02
2022-12-18T23:14:12.420Z,19.70
2022-12-18T23:18:14.415Z,18.95
2022-12-18T23:22:17.430Z,19.13
2022-12-18T23:26:22.097Z,20.35
2022-12-18T23:30:24.108Z,19.65
2022-12-18T23:34:26.120Z,20.70
2022-12-18T23:38:29.228Z,20.45
2022-12-18T23:42:31.251Z,20.77
2022-12-18T23:46:34.918Z,20.27
2022-12-18T23:50:37.455Z,21.08
2022-12-18T23:54:39.625Z,21.88
2022-12-18T23:58:42.690Z,20.98
